sensor_id;sensor_type;location;lat;lon;timestamp;P1;durP1;ratioP1;P2;durP2;ratioP2
70477;SDS011;57956;53.362;-1.518;2023-06-26T00:00:13;2.87;;;0.43;;
70477;SDS011;57956;53.362;-1.518;2023-06-26T00:02:39;2.92;;;0.47;;
70477;SDS011;57956;53.362;-1.518;2023-06-26T00:05:04;2.37;;;0.30;;
70477;SDS011;57956;53.362;-1.518;2023-06-26T00:07:30;3.15;;;0.40;;
70477;SDS011;57956;53.362;-1.518;2023-06-26T00:09:58;2.00;;;0.30;;
70477;SDS011;57956;53.362;-1.518;2023-06-26T00:12:23;3.67;;;0.50;;
70477;SDS011;57956;53.362;-1.518;2023-06-26T00:14:49;3.43;;;0.50;;
70477;SDS011;57956;53.362;-1.518;2023-06-26T00:17:14;3.80;;;0.40;;
70477;SDS011;57956;53.362;-1.518;2023-06-26T00:19:39;1.97;;;0.30;;
70477;SDS011;57956;53.362;-1.518;2023-06-26T00:22:04;3.03;;;0.37;;
70477;SDS011;57956;53.362;-1.518;2023-06-26T00:24:30;4.03;;;0.40;;
70477;SDS011;57956;53.362;-1.518;2023-06-26T00:26:55;2.47;;;0.30;;
70477;SDS011;57956;53.362;-1.518;2023-06-26T00:29:20;8.03;;;0.43;;
70477;SDS011;57956;53.362;-1.518;2023-06-26T00:31:45;5.63;;;0.43;;
70477;SDS011;57956;53.362;-1.518;2023-06-26T00:34:11;2.03;;;0.40;;
70477;SDS011;57956;53.362;-1.518;2023-06-26T00:36:36;3.00;;;0.30;;
70477;SDS011;57956;53.362;-1.518;2023-06-26T00:39:01;3.67;;;0.30;;
70477;SDS011;57956;53.362;-1.518;2023-06-26T00:41:28;4.80;;;0.60;;
70477;SDS011;57956;53.362;-1.518;2023-06-26T00:43:53;7.43;;;0.53;;
70477;SDS011;57956;53.362;-1.518;2023-06-26T00:46:19;3.60;;;0.50;;
70477;SDS011;57956;53.362;-1.518;2023-06-26T00:48:44;3.33;;;0.30;;
70477;SDS011;57956;53.362;-1.518;2023-06-26T00:51:10;1.98;;;0.30;;
70477;SDS011;57956;53.362;-1.518;2023-06-26T00:53:36;1.97;;;0.20;;
70477;SDS011;57956;53.362;-1.518;2023-06-26T00:56:02;2.00;;;0.30;;
70477;SDS011;57956;53.362;-1.518;2023-06-26T00:58:27;5.43;;;0.40;;
70477;SDS011;57956;53.362;-1.518;2023-06-26T01:00:52;2.43;;;0.20;;
70477;SDS011;57956;53.362;-1.518;2023-06-26T01:03:18;2.87;;;0.37;;
70477;SDS011;57956;53.362;-1.518;2023-06-26T01:05:43;2.47;;;0.30;;
70477;SDS011;57956;53.362;-1.518;2023-06-26T01:08:14;2.72;;;0.50;;
70477;SDS011;57956;53.362;-1.518;2023-06-26T01:10:40;1.80;;;0.30;;
70477;SDS011;57956;53.362;-1.518;2023-06-26T01:13:05;2.90;;;0.40;;
70477;SDS011;57956;53.362;-1.518;2023-06-26T01:15:30;2.33;;;0.20;;
70477;SDS011;57956;53.362;-1.518;2023-06-26T01:17:56;2.00;;;0.40;;
70477;SDS011;57956;53.362;-1.518;2023-06-26T01:20:24;2.43;;;0.20;;
70477;SDS011;57956;53.362;-1.518;2023-06-26T01:25:23;5.90;;;0.63;;
70477;SDS011;57956;53.362;-1.518;2023-06-26T01:27:54;2.55;;;0.43;;
70477;SDS011;57956;53.362;-1.518;2023-06-26T01:30:20;2.67;;;0.47;;
70477;SDS011;57956;53.362;-1.518;2023-06-26T01:32:46;4.60;;;0.33;;
70477;SDS011;57956;53.362;-1.518;2023-06-26T01:35:12;3.97;;;0.32;;
70477;SDS011;57956;53.362;-1.518;2023-06-26T01:37:38;2.90;;;0.40;;
70477;SDS011;57956;53.362;-1.518;2023-06-26T01:40:03;3.80;;;0.37;;
70477;SDS011;57956;53.362;-1.518;2023-06-26T01:42:35;1.55;;;0.13;;
70477;SDS011;57956;53.362;-1.518;2023-06-26T01:45:02;1.57;;;0.20;;
70477;SDS011;57956;53.362;-1.518;2023-06-26T01:47:28;2.55;;;0.47;;
70477;SDS011;57956;53.362;-1.518;2023-06-26T01:55:03;4.20;;;0.38;;
70477;SDS011;57956;53.362;-1.518;2023-06-26T01:57:28;1.70;;;0.30;;
70477;SDS011;57956;53.362;-1.518;2023-06-26T01:59:55;2.10;;;0.50;;
70477;SDS011;57956;53.362;-1.518;2023-06-26T02:02:22;2.58;;;0.38;;
70477;SDS011;57956;53.362;-1.518;2023-06-26T02:04:48;4.63;;;0.40;;
70477;SDS011;57956;53.362;-1.518;2023-06-26T02:07:14;3.80;;;0.40;;
70477;SDS011;57956;53.362;-1.518;2023-06-26T02:09:42;3.15;;;0.60;;
70477;SDS011;57956;53.362;-1.518;2023-06-26T02:12:08;2.20;;;0.50;;
70477;SDS011;57956;53.362;-1.518;2023-06-26T02:14:33;2.70;;;0.50;;
70477;SDS011;57956;53.362;-1.518;2023-06-26T02:16:59;2.70;;;0.53;;
70477;SDS011;57956;53.362;-1.518;2023-06-26T02:19:25;1.83;;;0.30;;
70477;SDS011;57956;53.362;-1.518;2023-06-26T02:21:52;2.77;;;0.50;;
70477;SDS011;57956;53.362;-1.518;2023-06-26T02:24:17;3.07;;;0.40;;
70477;SDS011;57956;53.362;-1.518;2023-06-26T02:26:42;2.73;;;0.37;;
70477;SDS011;57956;53.362;-1.518;2023-06-26T02:29:07;2.67;;;0.50;;
70477;SDS011;57956;53.362;-1.518;2023-06-26T02:31:33;4.97;;;0.60;;
70477;SDS011;57956;53.362;-1.518;2023-06-26T02:33:58;5.23;;;0.93;;
70477;SDS011;57956;53.362;-1.518;2023-06-26T02:36:23;3.73;;;0.30;;
70477;SDS011;57956;53.362;-1.518;2023-06-26T02:38:48;2.30;;;0.40;;
70477;SDS011;57956;53.362;-1.518;2023-06-26T02:41:13;2.00;;;0.50;;
70477;SDS011;57956;53.362;-1.518;2023-06-26T02:43:39;2.13;;;0.40;;
70477;SDS011;57956;53.362;-1.518;2023-06-26T02:46:04;2.07;;;0.30;;
70477;SDS011;57956;53.362;-1.518;2023-06-26T02:48:29;3.33;;;0.60;;
70477;SDS011;57956;53.362;-1.518;2023-06-26T02:50:54;5.60;;;0.50;;
70477;SDS011;57956;53.362;-1.518;2023-06-26T02:53:20;2.40;;;0.30;;
70477;SDS011;57956;53.362;-1.518;2023-06-26T02:55:45;2.33;;;0.30;;
70477;SDS011;57956;53.362;-1.518;2023-06-26T02:58:12;2.75;;;0.57;;
70477;SDS011;57956;53.362;-1.518;2023-06-26T03:00:37;2.47;;;0.40;;
70477;SDS011;57956;53.362;-1.518;2023-06-26T03:03:06;2.97;;;0.70;;
70477;SDS011;57956;53.362;-1.518;2023-06-26T03:05:31;3.20;;;0.80;;
70477;SDS011;57956;53.362;-1.518;2023-06-26T03:07:56;2.60;;;0.47;;
70477;SDS011;57956;53.362;-1.518;2023-06-26T03:10:21;4.77;;;0.50;;
70477;SDS011;57956;53.362;-1.518;2023-06-26T03:12:47;2.80;;;0.50;;
70477;SDS011;57956;53.362;-1.518;2023-06-26T03:15:12;2.53;;;0.50;;
70477;SDS011;57956;53.362;-1.518;2023-06-26T03:17:37;2.80;;;0.50;;
70477;SDS011;57956;53.362;-1.518;2023-06-26T03:20:02;3.10;;;0.73;;
70477;SDS011;57956;53.362;-1.518;2023-06-26T03:22:31;6.80;;;0.73;;
70477;SDS011;57956;53.362;-1.518;2023-06-26T03:24:57;3.53;;;1.00;;
70477;SDS011;57956;53.362;-1.518;2023-06-26T03:27:22;4.17;;;0.97;;
70477;SDS011;57956;53.362;-1.518;2023-06-26T03:29:47;3.10;;;0.70;;
70477;SDS011;57956;53.362;-1.518;2023-06-26T03:32:12;2.97;;;0.80;;
70477;SDS011;57956;53.362;-1.518;2023-06-26T03:34:38;3.00;;;0.80;;
70477;SDS011;57956;53.362;-1.518;2023-06-26T03:37:03;3.20;;;1.00;;
70477;SDS011;57956;53.362;-1.518;2023-06-26T03:39:28;5.87;;;1.07;;
70477;SDS011;57956;53.362;-1.518;2023-06-26T03:41:54;3.07;;;0.80;;
70477;SDS011;57956;53.362;-1.518;2023-06-26T03:44:20;3.20;;;1.00;;
70477;SDS011;57956;53.362;-1.518;2023-06-26T03:46:46;4.20;;;1.00;;
70477;SDS011;57956;53.362;-1.518;2023-06-26T03:49:11;7.72;;;1.00;;
70477;SDS011;57956;53.362;-1.518;2023-06-26T03:51:36;2.70;;;0.60;;
70477;SDS011;57956;53.362;-1.518;2023-06-26T03:54:02;2.90;;;0.70;;
70477;SDS011;57956;53.362;-1.518;2023-06-26T03:56:27;2.70;;;0.70;;
70477;SDS011;57956;53.362;-1.518;2023-06-26T03:58:52;4.20;;;0.93;;
70477;SDS011;57956;53.362;-1.518;2023-06-26T04:01:17;3.40;;;1.00;;
70477;SDS011;57956;53.362;-1.518;2023-06-26T04:03:46;3.30;;;0.90;;
70477;SDS011;57956;53.362;-1.518;2023-06-26T04:06:11;3.42;;;0.80;;
70477;SDS011;57956;53.362;-1.518;2023-06-26T04:08:36;6.70;;;1.10;;
70477;SDS011;57956;53.362;-1.518;2023-06-26T04:11:02;2.80;;;0.60;;
70477;SDS011;57956;53.362;-1.518;2023-06-26T04:13:27;3.43;;;1.20;;
70477;SDS011;57956;53.362;-1.518;2023-06-26T04:15:52;2.83;;;0.80;;
70477;SDS011;57956;53.362;-1.518;2023-06-26T04:18:17;4.03;;;0.70;;
70477;SDS011;57956;53.362;-1.518;2023-06-26T04:21:03;4.20;;;0.90;;
70477;SDS011;57956;53.362;-1.518;2023-06-26T04:23:29;9.10;;;1.30;;
70477;SDS011;57956;53.362;-1.518;2023-06-26T04:25:54;4.37;;;1.23;;
70477;SDS011;57956;53.362;-1.518;2023-06-26T04:28:19;3.67;;;1.13;;
70477;SDS011;57956;53.362;-1.518;2023-06-26T04:30:44;4.47;;;0.93;;
70477;SDS011;57956;53.362;-1.518;2023-06-26T04:33:09;3.20;;;0.73;;
70477;SDS011;57956;53.362;-1.518;2023-06-26T04:35:37;3.40;;;0.63;;
70477;SDS011;57956;53.362;-1.518;2023-06-26T04:38:02;4.37;;;0.90;;
70477;SDS011;57956;53.362;-1.518;2023-06-26T04:40:27;5.43;;;1.23;;
70477;SDS011;57956;53.362;-1.518;2023-06-26T04:42:52;4.20;;;0.93;;
70477;SDS011;57956;53.362;-1.518;2023-06-26T04:45:18;3.20;;;0.60;;
70477;SDS011;57956;53.362;-1.518;2023-06-26T04:47:43;3.27;;;0.93;;
70477;SDS011;57956;53.362;-1.518;2023-06-26T04:50:08;4.80;;;0.87;;
70477;SDS011;57956;53.362;-1.518;2023-06-26T04:52:34;2.47;;;0.60;;
70477;SDS011;57956;53.362;-1.518;2023-06-26T04:54:59;2.60;;;0.50;;
70477;SDS011;57956;53.362;-1.518;2023-06-26T04:57:24;3.40;;;0.67;;
70477;SDS011;57956;53.362;-1.518;2023-06-26T04:59:50;2.80;;;0.60;;
70477;SDS011;57956;53.362;-1.518;2023-06-26T05:02:15;2.90;;;0.70;;
70477;SDS011;57956;53.362;-1.518;2023-06-26T05:04:40;4.77;;;0.80;;
70477;SDS011;57956;53.362;-1.518;2023-06-26T05:07:07;3.58;;;1.17;;
70477;SDS011;57956;53.362;-1.518;2023-06-26T05:09:32;3.33;;;0.93;;
70477;SDS011;57956;53.362;-1.518;2023-06-26T05:11:57;3.40;;;0.70;;
70477;SDS011;57956;53.362;-1.518;2023-06-26T05:14:23;3.90;;;0.67;;
70477;SDS011;57956;53.362;-1.518;2023-06-26T05:16:48;2.77;;;0.60;;
70477;SDS011;57956;53.362;-1.518;2023-06-26T05:19:13;5.80;;;1.07;;
70477;SDS011;57956;53.362;-1.518;2023-06-26T05:21:38;4.97;;;0.90;;
70477;SDS011;57956;53.362;-1.518;2023-06-26T05:24:04;3.33;;;0.60;;
70477;SDS011;57956;53.362;-1.518;2023-06-26T05:26:30;4.63;;;0.70;;
70477;SDS011;57956;53.362;-1.518;2023-06-26T05:28:55;2.60;;;0.50;;
70477;SDS011;57956;53.362;-1.518;2023-06-26T05:31:21;3.93;;;0.63;;
70477;SDS011;57956;53.362;-1.518;2023-06-26T05:33:46;2.70;;;0.80;;
70477;SDS011;57956;53.362;-1.518;2023-06-26T05:36:12;4.60;;;0.63;;
70477;SDS011;57956;53.362;-1.518;2023-06-26T05:38:37;4.22;;;0.90;;
70477;SDS011;57956;53.362;-1.518;2023-06-26T05:41:03;2.13;;;0.53;;
70477;SDS011;57956;53.362;-1.518;2023-06-26T05:43:28;3.90;;;0.63;;
70477;SDS011;57956;53.362;-1.518;2023-06-26T05:45:53;4.90;;;1.00;;
70477;SDS011;57956;53.362;-1.518;2023-06-26T05:48:19;3.63;;;0.57;;
70477;SDS011;57956;53.362;-1.518;2023-06-26T05:50:44;4.50;;;0.80;;
70477;SDS011;57956;53.362;-1.518;2023-06-26T05:53:10;3.25;;;0.88;;
70477;SDS011;57956;53.362;-1.518;2023-06-26T05:55:35;6.87;;;1.00;;
70477;SDS011;57956;53.362;-1.518;2023-06-26T05:58:01;2.70;;;0.70;;
70477;SDS011;57956;53.362;-1.518;2023-06-26T06:00:27;2.85;;;0.75;;
70477;SDS011;57956;53.362;-1.518;2023-06-26T06:02:52;3.87;;;0.70;;
70477;SDS011;57956;53.362;-1.518;2023-06-26T06:05:19;3.08;;;1.10;;
70477;SDS011;57956;53.362;-1.518;2023-06-26T06:07:44;4.10;;;1.10;;
70477;SDS011;57956;53.362;-1.518;2023-06-26T06:10:09;3.63;;;0.80;;
70477;SDS011;57956;53.362;-1.518;2023-06-26T06:12:35;6.43;;;0.67;;
70477;SDS011;57956;53.362;-1.518;2023-06-26T06:15:00;5.57;;;1.17;;
70477;SDS011;57956;53.362;-1.518;2023-06-26T06:17:25;3.07;;;1.00;;
70477;SDS011;57956;53.362;-1.518;2023-06-26T06:19:50;3.50;;;0.80;;
70477;SDS011;57956;53.362;-1.518;2023-06-26T06:22:15;4.13;;;1.50;;
70477;SDS011;57956;53.362;-1.518;2023-06-26T06:24:42;3.40;;;0.90;;
70477;SDS011;57956;53.362;-1.518;2023-06-26T06:27:07;3.47;;;0.80;;
70477;SDS011;57956;53.362;-1.518;2023-06-26T06:29:32;3.53;;;0.83;;
70477;SDS011;57956;53.362;-1.518;2023-06-26T06:31:58;9.60;;;1.00;;
70477;SDS011;57956;53.362;-1.518;2023-06-26T06:34:23;5.03;;;0.60;;
70477;SDS011;57956;53.362;-1.518;2023-06-26T06:36:48;4.83;;;0.67;;
70477;SDS011;57956;53.362;-1.518;2023-06-26T06:39:15;4.15;;;0.60;;
70477;SDS011;57956;53.362;-1.518;2023-06-26T06:41:40;3.20;;;1.00;;
70477;SDS011;57956;53.362;-1.518;2023-06-26T06:44:05;2.97;;;0.63;;
70477;SDS011;57956;53.362;-1.518;2023-06-26T06:46:30;4.90;;;0.77;;
70477;SDS011;57956;53.362;-1.518;2023-06-26T06:48:55;5.30;;;0.83;;
70477;SDS011;57956;53.362;-1.518;2023-06-26T06:51:21;3.70;;;0.57;;
70477;SDS011;57956;53.362;-1.518;2023-06-26T06:53:46;4.50;;;0.63;;
70477;SDS011;57956;53.362;-1.518;2023-06-26T06:56:11;4.67;;;0.60;;
70477;SDS011;57956;53.362;-1.518;2023-06-26T06:58:37;3.00;;;0.60;;
70477;SDS011;57956;53.362;-1.518;2023-06-26T07:01:02;4.30;;;0.90;;
70477;SDS011;57956;53.362;-1.518;2023-06-26T07:03:29;5.47;;;1.00;;
70477;SDS011;57956;53.362;-1.518;2023-06-26T07:05:55;4.07;;;0.80;;
70477;SDS011;57956;53.362;-1.518;2023-06-26T07:08:20;1.95;;;0.50;;
70477;SDS011;57956;53.362;-1.518;2023-06-26T07:10:45;4.10;;;0.70;;
70477;SDS011;57956;53.362;-1.518;2023-06-26T07:13:11;2.87;;;0.73;;
70477;SDS011;57956;53.362;-1.518;2023-06-26T07:15:36;4.47;;;1.60;;
70477;SDS011;57956;53.362;-1.518;2023-06-26T07:18:01;2.00;;;0.43;;
70477;SDS011;57956;53.362;-1.518;2023-06-26T07:20:26;4.63;;;0.67;;
70477;SDS011;57956;53.362;-1.518;2023-06-26T07:22:52;3.20;;;0.70;;
70477;SDS011;57956;53.362;-1.518;2023-06-26T07:25:17;5.97;;;0.60;;
70477;SDS011;57956;53.362;-1.518;2023-06-26T07:27:43;7.23;;;0.97;;
70477;SDS011;57956;53.362;-1.518;2023-06-26T07:30:09;4.80;;;1.10;;
70477;SDS011;57956;53.362;-1.518;2023-06-26T07:32:34;6.53;;;0.90;;
70477;SDS011;57956;53.362;-1.518;2023-06-26T07:35:00;4.10;;;0.47;;
70477;SDS011;57956;53.362;-1.518;2023-06-26T07:37:25;2.80;;;0.50;;
70477;SDS011;57956;53.362;-1.518;2023-06-26T07:39:50;3.37;;;0.80;;
70477;SDS011;57956;53.362;-1.518;2023-06-26T07:42:16;4.23;;;0.80;;
70477;SDS011;57956;53.362;-1.518;2023-06-26T07:44:41;2.37;;;0.50;;
70477;SDS011;57956;53.362;-1.518;2023-06-26T07:47:07;3.33;;;0.73;;
70477;SDS011;57956;53.362;-1.518;2023-06-26T07:49:32;6.03;;;0.70;;
70477;SDS011;57956;53.362;-1.518;2023-06-26T07:51:57;5.13;;;0.30;;
70477;SDS011;57956;53.362;-1.518;2023-06-26T07:54:22;3.80;;;0.60;;
70477;SDS011;57956;53.362;-1.518;2023-06-26T07:59:19;3.63;;;0.47;;
70477;SDS011;57956;53.362;-1.518;2023-06-26T08:01:46;5.07;;;0.80;;
70477;SDS011;57956;53.362;-1.518;2023-06-26T08:04:11;4.97;;;0.60;;
70477;SDS011;57956;53.362;-1.518;2023-06-26T08:06:36;2.87;;;0.60;;
70477;SDS011;57956;53.362;-1.518;2023-06-26T08:09:05;5.53;;;0.50;;
70477;SDS011;57956;53.362;-1.518;2023-06-26T08:11:31;4.87;;;0.90;;
70477;SDS011;57956;53.362;-1.518;2023-06-26T08:13:56;4.38;;;0.57;;
70477;SDS011;57956;53.362;-1.518;2023-06-26T08:16:21;2.43;;;0.70;;
70477;SDS011;57956;53.362;-1.518;2023-06-26T08:18:47;3.53;;;0.70;;
70477;SDS011;57956;53.362;-1.518;2023-06-26T08:21:12;4.00;;;0.77;;
70477;SDS011;57956;53.362;-1.518;2023-06-26T08:23:37;2.30;;;0.43;;
70477;SDS011;57956;53.362;-1.518;2023-06-26T08:26:02;2.80;;;0.50;;
70477;SDS011;57956;53.362;-1.518;2023-06-26T08:28:28;3.03;;;0.40;;
70477;SDS011;57956;53.362;-1.518;2023-06-26T08:30:53;3.27;;;0.80;;
70477;SDS011;57956;53.362;-1.518;2023-06-26T08:33:18;3.47;;;0.43;;
70477;SDS011;57956;53.362;-1.518;2023-06-26T08:35:43;3.90;;;0.53;;
70477;SDS011;57956;53.362;-1.518;2023-06-26T08:38:09;3.50;;;0.43;;
70477;SDS011;57956;53.362;-1.518;2023-06-26T08:40:34;4.32;;;0.55;;
70477;SDS011;57956;53.362;-1.518;2023-06-26T08:43:01;4.63;;;0.70;;
70477;SDS011;57956;53.362;-1.518;2023-06-26T08:45:28;2.77;;;0.47;;
70477;SDS011;57956;53.362;-1.518;2023-06-26T08:47:53;3.70;;;0.77;;
70477;SDS011;57956;53.362;-1.518;2023-06-26T08:50:20;7.73;;;0.57;;
70477;SDS011;57956;53.362;-1.518;2023-06-26T08:52:54;4.25;;;0.80;;
70477;SDS011;57956;53.362;-1.518;2023-06-26T08:55:22;2.58;;;0.70;;
70477;SDS011;57956;53.362;-1.518;2023-06-26T08:57:49;3.38;;;0.80;;
70477;SDS011;57956;53.362;-1.518;2023-06-26T09:00:15;4.13;;;0.60;;
70477;SDS011;57956;53.362;-1.518;2023-06-26T09:02:40;5.20;;;0.80;;
70477;SDS011;57956;53.362;-1.518;2023-06-26T09:05:06;4.03;;;0.50;;
70477;SDS011;57956;53.362;-1.518;2023-06-26T09:07:31;2.30;;;0.35;;
70477;SDS011;57956;53.362;-1.518;2023-06-26T09:09:57;2.50;;;0.47;;
70477;SDS011;57956;53.362;-1.518;2023-06-26T09:12:23;3.13;;;0.50;;
70477;SDS011;57956;53.362;-1.518;2023-06-26T09:14:48;2.17;;;0.40;;
70477;SDS011;57956;53.362;-1.518;2023-06-26T09:17:15;2.47;;;0.52;;
70477;SDS011;57956;53.362;-1.518;2023-06-26T09:19:40;1.90;;;0.40;;
70477;SDS011;57956;53.362;-1.518;2023-06-26T09:22:10;5.27;;;0.50;;
70477;SDS011;57956;53.362;-1.518;2023-06-26T09:24:36;3.03;;;0.40;;
70477;SDS011;57956;53.362;-1.518;2023-06-26T09:27:01;3.67;;;0.83;;
70477;SDS011;57956;53.362;-1.518;2023-06-26T09:29:27;4.07;;;0.70;;
70477;SDS011;57956;53.362;-1.518;2023-06-26T09:31:53;2.70;;;0.50;;
70477;SDS011;57956;53.362;-1.518;2023-06-26T09:34:20;2.05;;;0.45;;
70477;SDS011;57956;53.362;-1.518;2023-06-26T09:36:46;2.50;;;0.50;;
70477;SDS011;57956;53.362;-1.518;2023-06-26T09:39:12;3.65;;;0.50;;
70477;SDS011;57956;53.362;-1.518;2023-06-26T09:41:42;1.90;;;0.32;;
70477;SDS011;57956;53.362;-1.518;2023-06-26T09:44:10;1.60;;;0.30;;
70477;SDS011;57956;53.362;-1.518;2023-06-26T09:46:38;3.80;;;0.50;;
70477;SDS011;57956;53.362;-1.518;2023-06-26T09:49:09;1.90;;;0.47;;
70477;SDS011;57956;53.362;-1.518;2023-06-26T09:51:40;3.45;;;0.38;;
70477;SDS011;57956;53.362;-1.518;2023-06-26T09:54:06;2.67;;;0.40;;
70477;SDS011;57956;53.362;-1.518;2023-06-26T09:56:32;1.98;;;0.35;;
70477;SDS011;57956;53.362;-1.518;2023-06-26T09:58:59;2.40;;;0.60;;
70477;SDS011;57956;53.362;-1.518;2023-06-26T10:01:25;1.95;;;0.50;;
70477;SDS011;57956;53.362;-1.518;2023-06-26T10:03:50;2.10;;;0.40;;
70477;SDS011;57956;53.362;-1.518;2023-06-26T10:06:17;3.77;;;0.50;;
70477;SDS011;57956;53.362;-1.518;2023-06-26T10:08:44;3.75;;;0.40;;
70477;SDS011;57956;53.362;-1.518;2023-06-26T10:11:11;2.07;;;0.43;;
70477;SDS011;57956;53.362;-1.518;2023-06-26T10:13:38;3.58;;;0.40;;
70477;SDS011;57956;53.362;-1.518;2023-06-26T10:16:05;3.45;;;0.60;;
70477;SDS011;57956;53.362;-1.518;2023-06-26T10:18:31;3.67;;;0.57;;
70477;SDS011;57956;53.362;-1.518;2023-06-26T10:20:57;2.40;;;0.40;;
70477;SDS011;57956;53.362;-1.518;2023-06-26T10:23:24;1.63;;;0.30;;
70477;SDS011;57956;53.362;-1.518;2023-06-26T10:25:51;2.30;;;0.47;;
70477;SDS011;57956;53.362;-1.518;2023-06-26T10:28:16;2.38;;;0.45;;
70477;SDS011;57956;53.362;-1.518;2023-06-26T10:30:42;2.13;;;0.40;;
70477;SDS011;57956;53.362;-1.518;2023-06-26T10:33:08;2.08;;;0.40;;
70477;SDS011;57956;53.362;-1.518;2023-06-26T10:35:40;4.17;;;0.47;;
70477;SDS011;57956;53.362;-1.518;2023-06-26T10:38:05;2.42;;;0.52;;
70477;SDS011;57956;53.362;-1.518;2023-06-26T10:40:42;1.73;;;0.32;;
70477;SDS011;57956;53.362;-1.518;2023-06-26T10:43:08;2.22;;;0.40;;
70477;SDS011;57956;53.362;-1.518;2023-06-26T10:45:34;2.13;;;0.40;;
70477;SDS011;57956;53.362;-1.518;2023-06-26T10:48:03;4.38;;;0.57;;
70477;SDS011;57956;53.362;-1.518;2023-06-26T10:50:30;3.72;;;0.50;;
70477;SDS011;57956;53.362;-1.518;2023-06-26T10:53:13;2.58;;;0.40;;
70477;SDS011;57956;53.362;-1.518;2023-06-26T10:55:49;1.95;;;0.30;;
70477;SDS011;57956;53.362;-1.518;2023-06-26T10:58:28;1.87;;;0.20;;
70477;SDS011;57956;53.362;-1.518;2023-06-26T11:03:39;4.10;;;0.40;;
70477;SDS011;57956;53.362;-1.518;2023-06-26T11:06:11;2.20;;;0.30;;
70477;SDS011;57956;53.362;-1.518;2023-06-26T11:08:52;3.03;;;0.40;;
70477;SDS011;57956;53.362;-1.518;2023-06-26T11:11:54;2.85;;;0.40;;
70477;SDS011;57956;53.362;-1.518;2023-06-26T11:14:06;2.50;;;0.50;;
70477;SDS011;57956;53.362;-1.518;2023-06-26T11:16:31;4.07;;;0.80;;
70477;SDS011;57956;53.362;-1.518;2023-06-26T11:18:58;2.25;;;0.40;;
70477;SDS011;57956;53.362;-1.518;2023-06-26T11:21:23;1.80;;;0.25;;
70477;SDS011;57956;53.362;-1.518;2023-06-26T11:23:48;2.50;;;0.30;;
70477;SDS011;57956;53.362;-1.518;2023-06-26T11:28:41;4.33;;;1.23;;
70477;SDS011;57956;53.362;-1.518;2023-06-26T11:31:22;3.40;;;0.40;;
70477;SDS011;57956;53.362;-1.518;2023-06-26T11:33:48;1.60;;;0.40;;
70477;SDS011;57956;53.362;-1.518;2023-06-26T11:36:13;1.63;;;0.20;;
70477;SDS011;57956;53.362;-1.518;2023-06-26T11:38:38;3.20;;;0.37;;
70477;SDS011;57956;53.362;-1.518;2023-06-26T11:41:04;2.63;;;0.40;;
70477;SDS011;57956;53.362;-1.518;2023-06-26T11:43:33;4.28;;;0.30;;
70477;SDS011;57956;53.362;-1.518;2023-06-26T11:45:58;2.23;;;0.30;;
70477;SDS011;57956;53.362;-1.518;2023-06-26T11:48:24;2.08;;;0.40;;
70477;SDS011;57956;53.362;-1.518;2023-06-26T11:50:50;2.57;;;0.30;;
70477;SDS011;57956;53.362;-1.518;2023-06-26T11:53:16;1.75;;;0.30;;
70477;SDS011;57956;53.362;-1.518;2023-06-26T11:55:41;1.60;;;0.40;;
70477;SDS011;57956;53.362;-1.518;2023-06-26T11:58:08;2.00;;;0.40;;
70477;SDS011;57956;53.362;-1.518;2023-06-26T12:00:33;3.77;;;1.00;;
70477;SDS011;57956;53.362;-1.518;2023-06-26T12:02:58;4.03;;;0.67;;
70477;SDS011;57956;53.362;-1.518;2023-06-26T12:05:23;2.73;;;0.20;;
70477;SDS011;57956;53.362;-1.518;2023-06-26T12:07:49;3.50;;;0.43;;
70477;SDS011;57956;53.362;-1.518;2023-06-26T12:10:15;2.95;;;0.65;;
70477;SDS011;57956;53.362;-1.518;2023-06-26T12:12:41;1.77;;;0.30;;
70477;SDS011;57956;53.362;-1.518;2023-06-26T12:15:07;2.88;;;0.40;;
70477;SDS011;57956;53.362;-1.518;2023-06-26T12:17:32;2.30;;;0.40;;
70477;SDS011;57956;53.362;-1.518;2023-06-26T12:19:58;3.70;;;0.33;;
70477;SDS011;57956;53.362;-1.518;2023-06-26T12:22:23;3.73;;;0.47;;
70477;SDS011;57956;53.362;-1.518;2023-06-26T12:24:48;3.00;;;0.30;;
70477;SDS011;57956;53.362;-1.518;2023-06-26T12:27:14;4.93;;;0.40;;
70477;SDS011;57956;53.362;-1.518;2023-06-26T12:29:40;1.58;;;0.22;;
70477;SDS011;57956;53.362;-1.518;2023-06-26T12:32:09;1.67;;;0.30;;
70477;SDS011;57956;53.362;-1.518;2023-06-26T12:34:36;3.37;;;0.33;;
70477;SDS011;57956;53.362;-1.518;2023-06-26T12:37:02;3.08;;;0.52;;
70477;SDS011;57956;53.362;-1.518;2023-06-26T12:39:28;2.97;;;0.32;;
70477;SDS011;57956;53.362;-1.518;2023-06-26T12:41:56;4.23;;;0.40;;
70477;SDS011;57956;53.362;-1.518;2023-06-26T12:46:50;1.60;;;0.30;;
70477;SDS011;57956;53.362;-1.518;2023-06-26T12:49:18;1.70;;;0.30;;
70477;SDS011;57956;53.362;-1.518;2023-06-26T12:51:44;4.25;;;0.30;;
70477;SDS011;57956;53.362;-1.518;2023-06-26T12:54:09;6.13;;;0.30;;
70477;SDS011;57956;53.362;-1.518;2023-06-26T12:56:35;2.07;;;0.60;;
70477;SDS011;57956;53.362;-1.518;2023-06-26T12:59:00;2.27;;;0.27;;
70477;SDS011;57956;53.362;-1.518;2023-06-26T13:01:26;2.58;;;0.32;;
70477;SDS011;57956;53.362;-1.518;2023-06-26T13:03:52;2.35;;;0.50;;
70477;SDS011;57956;53.362;-1.518;2023-06-26T13:06:17;3.00;;;0.40;;
70477;SDS011;57956;53.362;-1.518;2023-06-26T13:08:42;1.67;;;0.20;;
70477;SDS011;57956;53.362;-1.518;2023-06-26T13:11:08;5.88;;;0.50;;
70477;SDS011;57956;53.362;-1.518;2023-06-26T13:13:34;2.30;;;0.50;;
70477;SDS011;57956;53.362;-1.518;2023-06-26T13:15:59;2.20;;;0.30;;
70477;SDS011;57956;53.362;-1.518;2023-06-26T13:18:25;2.40;;;0.50;;
70477;SDS011;57956;53.362;-1.518;2023-06-26T13:20:50;2.40;;;0.20;;
70477;SDS011;57956;53.362;-1.518;2023-06-26T13:23:15;2.67;;;0.50;;
70477;SDS011;57956;53.362;-1.518;2023-06-26T13:25:41;1.92;;;0.28;;
70477;SDS011;57956;53.362;-1.518;2023-06-26T13:28:07;6.40;;;0.60;;
70477;SDS011;57956;53.362;-1.518;2023-06-26T13:30:32;1.70;;;0.20;;
70477;SDS011;57956;53.362;-1.518;2023-06-26T13:32:57;1.87;;;0.20;;
70477;SDS011;57956;53.362;-1.518;2023-06-26T13:35:22;1.90;;;0.20;;
70477;SDS011;57956;53.362;-1.518;2023-06-26T13:37:48;1.67;;;0.20;;
70477;SDS011;57956;53.362;-1.518;2023-06-26T13:40:13;2.33;;;0.20;;
70477;SDS011;57956;53.362;-1.518;2023-06-26T13:42:38;1.70;;;0.20;;
70477;SDS011;57956;53.362;-1.518;2023-06-26T13:45:04;2.65;;;0.30;;
70477;SDS011;57956;53.362;-1.518;2023-06-26T13:47:30;1.43;;;0.20;;
70477;SDS011;57956;53.362;-1.518;2023-06-26T13:49:55;3.20;;;0.20;;
70477;SDS011;57956;53.362;-1.518;2023-06-26T13:52:20;2.90;;;0.20;;
70477;SDS011;57956;53.362;-1.518;2023-06-26T13:54:46;3.23;;;0.20;;
70477;SDS011;57956;53.362;-1.518;2023-06-26T13:57:11;1.80;;;0.30;;
70477;SDS011;57956;53.362;-1.518;2023-06-26T13:59:37;1.80;;;0.30;;
70477;SDS011;57956;53.362;-1.518;2023-06-26T14:02:02;3.73;;;0.40;;
70477;SDS011;57956;53.362;-1.518;2023-06-26T14:04:29;4.15;;;0.30;;
70477;SDS011;57956;53.362;-1.518;2023-06-26T14:06:54;1.97;;;0.40;;
70477;SDS011;57956;53.362;-1.518;2023-06-26T14:09:20;2.13;;;0.30;;
70477;SDS011;57956;53.362;-1.518;2023-06-26T14:11:45;1.93;;;0.30;;
70477;SDS011;57956;53.362;-1.518;2023-06-26T14:14:10;3.17;;;0.40;;
70477;SDS011;57956;53.362;-1.518;2023-06-26T14:16:35;1.90;;;0.20;;
70477;SDS011;57956;53.362;-1.518;2023-06-26T14:19:00;3.70;;;0.50;;
70477;SDS011;57956;53.362;-1.518;2023-06-26T14:21:26;3.37;;;0.30;;
70477;SDS011;57956;53.362;-1.518;2023-06-26T14:23:52;2.05;;;0.20;;
70477;SDS011;57956;53.362;-1.518;2023-06-26T14:26:18;4.43;;;0.40;;
70477;SDS011;57956;53.362;-1.518;2023-06-26T14:28:43;3.07;;;0.40;;
70477;SDS011;57956;53.362;-1.518;2023-06-26T14:31:08;4.05;;;0.68;;
70477;SDS011;57956;53.362;-1.518;2023-06-26T14:33:33;1.77;;;0.20;;
70477;SDS011;57956;53.362;-1.518;2023-06-26T14:35:59;2.20;;;0.30;;
70477;SDS011;57956;53.362;-1.518;2023-06-26T14:38:24;1.83;;;0.27;;
70477;SDS011;57956;53.362;-1.518;2023-06-26T14:40:49;1.93;;;0.23;;
70477;SDS011;57956;53.362;-1.518;2023-06-26T14:43:14;1.53;;;0.20;;